Time;durP1;ratioP1;P1;durP2;ratioP2;P2;SDS_P1;SDS_P2;PMS_P1;PMS_P2;Temp;Humidity;BMP_temperature;BMP_pressure;BME280_temperature;BME280_humidity;BME280_pressure;Samples;Min_cycle;Max_cycle;Signal;HPM_P1;HPM_P2
2023/11/02 00:02:23;;;;;;;0.25;0.25;;;10.30;96.50;;;;;;4996550;28;21321;-71
2023/11/02 00:04:49;;;;;;;1.45;0.80;;;10.10;96.90;;;;;;4982077;28;20022;-71
2023/11/02 00:07:15;;;;;;;0.57;0.40;;;10.10;96.90;;;;;;4985077;28;20486;-71
2023/11/02 00:09:41;;;;;;;2.75;0.43;;;10.10;97.00;;;;;;4980576;28;20034;-71
2023/11/02 00:12:25;;;;;;;0.57;0.57;;;10.20;97.00;;;;;;4984310;28;20153;-71
2023/11/02 00:14:51;;;;;;;1.80;0.77;;;10.10;97.10;;;;;;4987771;28;20125;-71
2023/11/02 00:17:35;;;;;;;1.33;0.55;;;10.10;97.20;;;;;;4983835;28;20026;-71
2023/11/02 00:20:07;;;;;;;0.30;0.30;;;10.10;97.30;;;;;;4982340;28;20030;-71
2023/11/02 00:22:40;;;;;;;0.43;0.30;;;10.00;97.40;;;;;;4984972;28;20034;-71
2023/11/02 00:25:07;;;;;;;0.40;0.40;;;9.90;97.50;;;;;;4985416;28;20035;-73
2023/11/02 00:27:33;;;;;;;1.58;0.52;;;10.10;97.40;;;;;;4984090;28;20113;-71
2023/11/02 00:29:59;;;;;;;2.90;0.52;;;10.10;97.20;;;;;;4986280;28;20520;-71
2023/11/02 00:32:24;;;;;;;0.93;0.50;;;10.00;97.00;;;;;;4986057;28;20125;-71
2023/11/02 00:34:50;;;;;;;0.70;0.40;;;10.00;97.10;;;;;;4987087;28;20229;-71
2023/11/02 00:37:16;;;;;;;2.38;0.45;;;10.10;96.80;;;;;;4984329;28;20038;-72
2023/11/02 00:39:41;;;;;;;0.47;0.40;;;9.90;96.80;;;;;;4980570;28;20034;-71
2023/11/02 00:42:07;;;;;;;0.75;0.47;;;9.90;97.10;;;;;;4977300;28;20034;-72
2023/11/02 00:44:33;;;;;;;1.35;0.50;;;9.80;97.10;;;;;;4982210;28;20058;-71
2023/11/02 00:46:59;;;;;;;0.70;0.57;;;9.80;97.60;;;;;;4987975;28;20034;-71
2023/11/02 00:49:37;;;;;;;0.90;0.40;;;9.70;97.20;;;;;;4982114;28;20050;-72
2023/11/02 00:52:04;;;;;;;0.75;0.40;;;9.70;97.40;;;;;;4978685;28;20476;-72
2023/11/02 00:54:36;;;;;;;1.52;0.40;;;9.70;97.60;;;;;;4983525;28;20078;-71
2023/11/02 00:57:04;;;;;;;2.20;0.43;;;9.70;97.60;;;;;;4966176;28;20034;-71
2023/11/02 00:59:31;;;;;;;0.82;0.60;;;9.60;97.50;;;;;;4983503;28;20035;-71
2023/11/02 01:01:57;;;;;;;0.35;0.35;;;9.50;97.70;;;;;;4986871;28;20176;-71
2023/11/02 01:04:41;;;;;;;2.30;0.50;;;9.50;98.10;;;;;;4983917;28;20105;-71
2023/11/02 01:07:07;;;;;;;0.50;0.50;;;9.70;97.70;;;;;;4986755;28;20369;-71
2023/11/02 01:09:49;;;;;;;0.40;0.40;;;9.60;97.50;;;;;;4992653;28;20046;-71
2023/11/02 01:12:27;;;;;;;1.70;0.52;;;9.60;97.60;;;;;;4985304;28;20116;-71
2023/11/02 01:14:53;;;;;;;0.52;0.52;;;9.70;97.70;;;;;;4991932;28;20099;-70
2023/11/02 01:17:30;;;;;;;2.35;0.60;;;9.60;97.50;;;;;;4991010;28;20125;-71
2023/11/02 01:20:33;;;;;;;0.70;0.40;;;9.60;97.80;;;;;;4994118;28;20537;-71
2023/11/02 01:23:04;;;;;;;0.77;0.38;;;9.70;97.40;;;;;;4987534;28;20101;-71
2023/11/02 01:25:30;;;;;;;0.47;0.35;;;9.60;97.20;;;;;;4990266;28;20061;-72
2023/11/02 01:28:06;;;;;;;0.68;0.50;;;9.50;97.50;;;;;;4988199;28;20137;-71
2023/11/02 01:31:11;;;;;;;1.00;0.50;;;9.40;97.40;;;;;;4989639;28;20386;-71
2023/11/02 01:33:37;;;;;;;1.00;0.93;;;9.30;97.70;;;;;;4993919;28;20034;-71
2023/11/02 01:36:03;;;;;;;0.40;0.30;;;9.50;98.10;;;;;;4993910;28;20112;-72
2023/11/02 01:38:33;;;;;;;0.80;0.70;;;9.50;97.60;;;;;;4992664;28;20034;-71
2023/11/02 01:41:17;;;;;;;0.60;0.47;;;9.40;97.70;;;;;;4989441;28;20050;-71
2023/11/02 01:43:57;;;;;;;2.08;0.40;;;9.30;97.60;;;;;;4989992;28;20121;-71
2023/11/02 01:46:28;;;;;;;1.40;0.63;;;9.30;97.60;;;;;;4989335;28;20065;-71
2023/11/02 01:49:20;;;;;;;1.10;0.57;;;9.10;97.70;;;;;;4991621;28;20089;-71
2023/11/02 01:51:56;;;;;;;1.17;0.50;;;9.10;98.20;;;;;;4991782;28;20031;-72
2023/11/02 01:54:40;;;;;;;0.73;0.50;;;9.10;98.30;;;;;;4989484;28;20121;-71
2023/11/02 01:57:12;;;;;;;0.95;0.50;;;9.00;98.30;;;;;;4968203;28;20398;-71
2023/11/02 01:59:52;;;;;;;1.17;0.55;;;9.10;98.40;;;;;;4987932;28;20034;-71
2023/11/02 02:02:34;;;;;;;1.75;0.77;;;9.10;98.20;;;;;;4983442;28;20022;-71
2023/11/02 02:05:08;;;;;;;1.40;0.50;;;9.20;98.00;;;;;;4987301;28;20030;-71
2023/11/02 02:07:58;;;;;;;0.65;0.50;;;9.10;97.70;;;;;;4988296;28;20092;-71
2023/11/02 02:10:49;;;;;;;0.60;0.45;;;9.10;97.80;;;;;;4986402;28;20403;-71
2023/11/02 02:13:53;;;;;;;1.17;0.50;;;9.00;97.90;;;;;;4987605;28;20093;-71
2023/11/02 02:16:36;;;;;;;1.60;0.60;;;9.00;98.20;;;;;;4999149;28;20049;-71
2023/11/02 02:19:19;;;;;;;0.40;0.35;;;9.00;98.30;;;;;;4990411;28;20034;-71
2023/11/02 02:21:58;;;;;;;0.95;0.50;;;9.10;98.10;;;;;;4995698;28;20030;-71
2023/11/02 02:24:34;;;;;;;1.92;0.57;;;9.10;97.90;;;;;;4990440;28;20034;-71
2023/11/02 02:27:20;;;;;;;0.63;0.50;;;9.00;98.20;;;;;;4988095;28;20402;-71
2023/11/02 02:30:08;;;;;;;0.80;0.68;;;9.00;97.90;;;;;;4988060;28;20030;-71
2023/11/02 02:32:56;;;;;;;1.98;0.55;;;9.00;97.90;;;;;;4985449;28;20040;-71
2023/11/02 02:35:28;;;;;;;1.50;0.70;;;9.00;97.80;;;;;;4987998;28;20042;-71
2023/11/02 02:38:00;;;;;;;0.52;0.38;;;9.00;97.70;;;;;;4991074;28;20482;-70
2023/11/02 02:40:39;;;;;;;1.38;0.50;;;8.90;97.60;;;;;;4991100;28;20113;-71
2023/11/02 02:43:05;;;;;;;2.28;1.00;;;9.00;97.60;;;;;;4987575;28;20073;-71
2023/11/02 02:45:34;;;;;;;0.88;0.40;;;8.90;97.90;;;;;;4991461;28;20104;-71
2023/11/02 02:48:02;;;;;;;1.00;0.45;;;8.80;97.90;;;;;;4991883;28;20120;-71
2023/11/02 02:50:29;;;;;;;1.27;0.82;;;8.90;98.00;;;;;;4986933;28;20081;-71
2023/11/02 02:52:58;;;;;;;1.23;0.52;;;8.90;97.80;;;;;;4989327;28;20034;-71
2023/11/02 02:55:27;;;;;;;0.30;0.30;;;8.90;97.50;;;;;;4991240;28;20041;-71
2023/11/02 02:57:57;;;;;;;0.50;0.40;;;9.00;97.40;;;;;;4960538;28;20499;-70
2023/11/02 03:00:25;;;;;;;1.00;0.50;;;9.00;97.40;;;;;;4988590;28;20615;-71
2023/11/02 03:02:53;;;;;;;0.30;0.30;;;9.00;97.30;;;;;;4990778;28;20049;-71
2023/11/02 03:05:20;;;;;;;1.10;0.60;;;9.00;97.30;;;;;;4985723;28;20053;-71
2023/11/02 03:07:48;;;;;;;0.35;0.30;;;9.10;96.70;;;;;;4988223;28;20038;-72
2023/11/02 03:10:15;;;;;;;0.98;0.68;;;9.00;96.50;;;;;;4986215;28;20030;-71
2023/11/02 03:12:42;;;;;;;0.55;0.40;;;9.00;96.80;;;;;;4988736;28;20146;-71
2023/11/02 03:15:08;;;;;;;0.30;0.28;;;9.00;97.00;;;;;;4985133;28;20487;-71
2023/11/02 03:18:01;;;;;;;0.88;0.50;;;8.90;96.60;;;;;;4991866;28;20044;-72
2023/11/02 03:20:26;;;;;;;1.85;1.00;;;9.00;96.70;;;;;;4986863;28;20041;-72
2023/11/02 03:22:59;;;;;;;1.42;0.63;;;9.00;96.70;;;;;;4991842;28;20033;-71
2023/11/02 03:25:40;;;;;;;0.77;0.63;;;8.90;96.70;;;;;;4985271;28;20073;-70
2023/11/02 03:28:22;;;;;;;0.65;0.45;;;8.90;96.90;;;;;;4982386;28;20395;-72
2023/11/02 03:31:07;;;;;;;0.38;0.30;;;8.80;96.90;;;;;;4987286;28;20034;-71
2023/11/02 03:33:57;;;;;;;0.57;0.50;;;8.70;97.10;;;;;;4991731;28;20030;-71
2023/11/02 03:36:46;;;;;;;0.65;0.30;;;8.60;97.50;;;;;;4986169;28;20040;-71
2023/11/02 03:39:26;;;;;;;0.30;0.30;;;8.60;97.50;;;;;;4985776;28;20038;-70
2023/11/02 03:42:31;;;;;;;0.40;0.40;;;8.60;97.50;;;;;;4987209;28;20046;-71
2023/11/02 03:45:08;;;;;;;0.85;0.45;;;8.50;97.70;;;;;;4988763;28;20030;-71
2023/11/02 03:48:17;;;;;;;0.57;0.50;;;8.40;97.80;;;;;;4989158;28;20514;-70
2023/11/02 03:51:03;;;;;;;0.75;0.50;;;8.50;98.10;;;;;;4986076;28;20032;-72
2023/11/02 03:54:08;;;;;;;0.80;0.47;;;8.40;97.80;;;;;;4986204;28;20237;-71
2023/11/02 03:57:01;;;;;;;1.42;0.55;;;8.30;98.20;;;;;;4992933;28;20040;-71
2023/11/02 03:59:52;;;;;;;1.27;0.65;;;8.30;98.20;;;;;;4962686;28;20038;-71
2023/11/02 04:02:24;;;;;;;;;;;8.30;98.20;;;;;;4990698;28;20043;-72
2023/11/02 04:04:59;;;;;;;0.40;0.30;;;8.20;98.40;;;;;;4991211;28;19917;-72
2023/11/02 04:08:10;;;;;;;1.13;0.50;;;8.20;98.60;;;;;;4980639;28;20034;-71
2023/11/02 04:10:50;;;;;;;0.80;0.50;;;8.20;98.50;;;;;;4982963;28;20042;-71
2023/11/02 04:13:44;;;;;;;0.43;0.43;;;8.20;98.60;;;;;;4985036;28;20129;-70
2023/11/02 04:16:10;;;;;;;1.55;0.68;;;8.20;98.80;;;;;;4983478;28;20129;-71
2023/11/02 04:18:38;;;;;;;0.80;0.45;;;8.20;98.60;;;;;;4983582;28;20113;-71
2023/11/02 04:21:04;;;;;;;0.45;0.40;;;8.20;98.70;;;;;;4979736;28;20126;-70
2023/11/02 04:23:30;;;;;;;0.65;0.50;;;8.20;98.70;;;;;;4983136;28;20045;-70
2023/11/02 04:25:56;;;;;;;0.93;0.60;;;8.20;98.60;;;;;;4989965;28;20034;-71
2023/11/02 04:28:22;;;;;;;0.95;0.38;;;8.30;98.70;;;;;;4987196;28;20081;-70
2023/11/02 04:30:48;;;;;;;1.30;0.57;;;8.30;98.50;;;;;;4990493;28;20125;-70
2023/11/02 04:33:14;;;;;;;1.17;0.50;;;8.40;98.50;;;;;;4983020;28;20047;-70
2023/11/02 04:35:41;;;;;;;1.30;0.52;;;8.40;98.50;;;;;;4987591;28;20463;-70
2023/11/02 04:38:07;;;;;;;0.50;0.35;;;8.50;98.30;;;;;;4985091;28;20544;-71
2023/11/02 04:40:34;;;;;;;1.75;0.50;;;8.50;98.20;;;;;;4978855;28;20117;-70
2023/11/02 04:43:01;;;;;;;1.52;0.70;;;8.50;98.40;;;;;;4984682;28;20416;-71
2023/11/02 04:45:29;;;;;;;0.40;0.32;;;8.60;98.00;;;;;;4988590;28;20387;-70
2023/11/02 04:47:56;;;;;;;0.73;0.45;;;8.70;97.70;;;;;;4987815;28;20467;-70
2023/11/02 04:50:21;;;;;;;0.77;0.60;;;8.70;97.50;;;;;;4984646;28;20038;-71
2023/11/02 04:52:48;;;;;;;1.20;0.55;;;8.70;97.50;;;;;;4985305;28;20418;-70
2023/11/02 04:55:14;;;;;;;0.98;0.45;;;8.60;97.60;;;;;;4983700;28;20036;-71
2023/11/02 04:57:40;;;;;;;1.02;0.60;;;8.70;97.70;;;;;;4962270;28;20043;-71
2023/11/02 05:00:06;;;;;;;0.57;0.30;;;8.70;97.50;;;;;;4989545;28;20038;-72
2023/11/02 05:02:31;;;;;;;0.95;0.65;;;8.60;97.70;;;;;;4986086;28;20097;-70
2023/11/02 05:04:57;;;;;;;0.40;0.40;;;8.70;97.50;;;;;;4981274;28;20038;-71
2023/11/02 05:07:23;;;;;;;0.40;0.40;;;8.60;97.40;;;;;;4981025;28;20101;-71
2023/11/02 05:09:49;;;;;;;0.75;0.50;;;8.60;97.60;;;;;;4983255;28;20545;-70
2023/11/02 05:12:14;;;;;;;0.90;0.60;;;8.60;97.60;;;;;;4983836;28;20113;-71
2023/11/02 05:14:40;;;;;;;1.23;0.63;;;8.50;97.80;;;;;;4984620;28;20034;-70
2023/11/02 05:17:05;;;;;;;1.00;0.47;;;8.50;97.80;;;;;;4986668;28;20035;-71
2023/11/02 05:19:31;;;;;;;0.50;0.40;;;8.50;97.90;;;;;;4984292;28;20104;-70
2023/11/02 05:21:56;;;;;;;0.77;0.60;;;8.50;97.90;;;;;;4991487;28;20022;-71
2023/11/02 05:24:22;;;;;;;0.85;0.57;;;8.40;98.00;;;;;;4986112;28;20109;-71
2023/11/02 05:26:47;;;;;;;0.57;0.50;;;8.30;98.10;;;;;;4983600;28;20054;-67
2023/11/02 05:29:13;;;;;;;0.38;0.35;;;8.40;98.10;;;;;;4986568;28;20042;-66
2023/11/02 05:31:38;;;;;;;0.93;0.57;;;8.40;98.10;;;;;;4988306;28;20030;-66
2023/11/02 05:34:04;;;;;;;1.27;0.55;;;8.40;98.00;;;;;;4988627;28;20049;-67
2023/11/02 05:36:29;;;;;;;0.40;0.40;;;8.40;98.10;;;;;;4990262;28;20089;-66
2023/11/02 05:38:55;;;;;;;0.47;0.40;;;8.40;98.10;;;;;;4985033;28;20122;-66
2023/11/02 05:41:21;;;;;;;0.30;0.30;;;8.40;98.10;;;;;;4979870;28;20034;-67
2023/11/02 05:43:47;;;;;;;0.60;0.50;;;8.50;98.20;;;;;;4988053;28;20026;-66
2023/11/02 05:46:12;;;;;;;0.50;0.50;;;8.50;98.00;;;;;;4984524;28;20034;-66
2023/11/02 05:48:38;;;;;;;0.55;0.40;;;8.60;98.00;;;;;;4987244;28;20038;-66
2023/11/02 05:51:03;;;;;;;1.10;0.70;;;8.60;97.60;;;;;;4990876;28;20030;-66
2023/11/02 05:53:29;;;;;;;0.50;0.40;;;8.70;97.50;;;;;;4988471;28;20430;-67
2023/11/02 05:55:54;;;;;;;1.33;0.70;;;8.70;97.40;;;;;;4991145;28;20030;-66
2023/11/02 05:58:21;;;;;;;2.10;0.75;;;8.80;97.30;;;;;;4964857;28;20053;-67
2023/11/02 06:00:47;;;;;;;0.40;0.40;;;8.80;97.10;;;;;;4988425;28;20030;-68
2023/11/02 06:03:13;;;;;;;0.47;0.40;;;8.90;96.90;;;;;;4986210;28;20030;-67
2023/11/02 06:05:38;;;;;;;0.55;0.43;;;8.90;96.80;;;;;;4984978;28;20467;-68
2023/11/02 06:08:04;;;;;;;0.82;0.50;;;9.00;96.50;;;;;;4989663;28;20035;-68
2023/11/02 06:10:29;;;;;;;0.50;0.50;;;9.00;96.50;;;;;;4991654;28;20026;-68
2023/11/02 06:12:55;;;;;;;1.30;0.50;;;9.00;96.60;;;;;;4985349;28;20315;-67
2023/11/02 06:15:20;;;;;;;0.20;0.20;;;9.10;96.20;;;;;;4985355;28;20046;-68
2023/11/02 06:17:45;;;;;;;1.05;0.55;;;9.10;96.10;;;;;;4990920;28;20113;-68
2023/11/02 06:20:11;;;;;;;0.30;0.30;;;9.20;96.10;;;;;;4991613;28;20048;-67
2023/11/02 06:22:36;;;;;;;0.28;0.28;;;9.10;96.10;;;;;;4982595;28;20526;-67
2023/11/02 06:25:02;;;;;;;1.27;0.50;;;9.10;96.10;;;;;;4990836;28;20049;-67
2023/11/02 06:27:28;;;;;;;0.25;0.25;;;9.20;96.00;;;;;;4985235;28;20046;-68
2023/11/02 06:29:54;;;;;;;0.57;0.45;;;9.10;95.90;;;;;;4992618;28;20101;-67
2023/11/02 06:32:20;;;;;;;1.02;0.63;;;9.10;95.90;;;;;;4988266;28;20034;-66
2023/11/02 06:34:45;;;;;;;1.08;0.63;;;9.10;96.00;;;;;;4992816;28;20122;-69
2023/11/02 06:37:13;;;;;;;0.40;0.38;;;9.10;96.00;;;;;;4989941;28;20030;-68
2023/11/02 06:39:39;;;;;;;0.45;0.32;;;9.00;96.00;;;;;;4987273;28;20126;-67
2023/11/02 06:42:05;;;;;;;0.50;0.43;;;9.00;96.10;;;;;;4992919;28;20113;-68
2023/11/02 06:44:30;;;;;;;0.77;0.50;;;9.00;96.00;;;;;;4991021;28;20057;-67
2023/11/02 06:46:56;;;;;;;0.30;0.30;;;9.10;95.90;;;;;;4989420;28;20042;-66
2023/11/02 06:49:21;;;;;;;0.80;0.40;;;9.00;96.00;;;;;;4985514;28;20039;-67
2023/11/02 06:51:47;;;;;;;0.32;0.32;;;9.10;95.90;;;;;;4987945;28;20426;-66
2023/11/02 06:54:13;;;;;;;1.27;0.52;;;9.20;95.30;;;;;;4983941;28;20151;-65
2023/11/02 06:56:39;;;;;;;1.73;0.50;;;9.20;95.10;;;;;;4984359;28;20089;-65
2023/11/02 06:59:05;;;;;;;0.30;0.30;;;9.20;95.20;;;;;;4960432;28;20053;-65
2023/11/02 07:01:31;;;;;;;0.55;0.40;;;9.20;95.20;;;;;;4986977;28;20038;-66
2023/11/02 07:03:58;;;;;;;0.35;0.32;;;9.30;94.90;;;;;;4987869;28;20538;-66
2023/11/02 07:06:23;;;;;;;0.20;0.20;;;9.30;94.90;;;;;;5002322;28;20117;-66
2023/11/02 07:08:50;;;;;;;2.05;0.40;;;9.40;94.60;;;;;;4984168;28;20133;-67
2023/11/02 07:11:15;;;;;;;0.30;0.30;;;9.40;94.50;;;;;;4985530;28;20799;-68
2023/11/02 07:13:40;;;;;;;0.35;0.32;;;9.50;94.10;;;;;;4980864;28;20046;-67
2023/11/02 07:16:06;;;;;;;0.85;0.30;;;9.50;94.30;;;;;;4985802;28;20137;-67
2023/11/02 07:18:32;;;;;;;0.57;0.30;;;9.60;94.00;;;;;;4990676;28;20046;-68
2023/11/02 07:20:57;;;;;;;1.15;0.30;;;9.50;94.30;;;;;;4988614;28;20036;-67
2023/11/02 07:23:23;;;;;;;0.30;0.17;;;9.60;94.10;;;;;;4990648;28;20034;-68
2023/11/02 07:25:48;;;;;;;0.43;0.30;;;9.60;93.80;;;;;;4986441;28;20030;-66
2023/11/02 07:28:14;;;;;;;0.50;0.40;;;9.70;93.70;;;;;;4987919;28;20530;-68
2023/11/02 07:30:39;;;;;;;0.40;0.38;;;9.70;93.80;;;;;;4985081;28;20065;-68
2023/11/02 07:33:06;;;;;;;0.52;0.40;;;9.70;93.80;;;;;;4988697;28;20046;-67
2023/11/02 07:35:31;;;;;;;0.35;0.20;;;9.70;93.50;;;;;;4984440;28;20034;-67
2023/11/02 07:37:57;;;;;;;1.27;0.60;;;9.90;93.10;;;;;;4988357;28;20034;-67
2023/11/02 07:40:22;;;;;;;0.30;0.30;;;9.80;93.40;;;;;;4984960;28;20042;-67
2023/11/02 07:42:48;;;;;;;0.68;0.43;;;9.80;93.30;;;;;;4989628;28;20066;-66
2023/11/02 07:45:14;;;;;;;0.75;0.30;;;9.90;92.90;;;;;;4983767;28;20462;-68
2023/11/02 07:47:39;;;;;;;0.40;0.20;;;9.90;92.90;;;;;;4983302;28;20514;-67
2023/11/02 07:50:05;;;;;;;0.28;0.28;;;9.90;93.10;;;;;;4995019;28;20061;-67
2023/11/02 07:52:31;;;;;;;0.43;0.30;;;9.90;92.90;;;;;;4985113;28;20080;-67
2023/11/02 07:54:57;;;;;;;0.10;0.10;;;9.90;93.10;;;;;;4986870;28;20057;-67
2023/11/02 07:57:23;;;;;;;0.70;0.30;;;9.90;92.90;;;;;;4983068;28;20081;-69
2023/11/02 07:59:50;;;;;;;0.57;0.22;;;9.90;93.40;;;;;;4963622;28;20054;-66
2023/11/02 08:02:16;;;;;;;0.50;0.40;;;9.90;93.10;;;;;;4987663;28;20086;-67
2023/11/02 08:04:41;;;;;;;0.30;0.30;;;9.90;93.20;;;;;;4986691;28;20475;-67
2023/11/02 08:07:07;;;;;;;0.43;0.25;;;9.90;92.90;;;;;;4988135;28;20451;-68
2023/11/02 08:09:37;;;;;;;0.20;0.20;;;10.00;92.90;;;;;;4986843;28;20077;-67
2023/11/02 08:12:04;;;;;;;0.73;0.30;;;10.00;93.20;;;;;;4984888;28;20018;-68
2023/11/02 08:14:29;;;;;;;0.38;0.30;;;10.10;92.80;;;;;;4986378;28;20034;-67
2023/11/02 08:16:55;;;;;;;0.80;0.45;;;10.10;92.70;;;;;;4988977;28;20546;-68
2023/11/02 08:19:20;;;;;;;0.55;0.43;;;10.20;92.10;;;;;;4989725;28;20559;-66
2023/11/02 08:21:46;;;;;;;1.40;0.30;;;10.20;92.00;;;;;;4985604;28;20383;-66
2023/11/02 08:24:11;;;;;;;1.38;0.30;;;10.30;92.00;;;;;;4987601;28;20035;-67
2023/11/02 08:26:37;;;;;;;0.28;0.28;;;10.30;91.80;;;;;;4986639;28;20062;-69
2023/11/02 08:29:02;;;;;;;0.93;0.38;;;10.50;90.90;;;;;;4984862;28;20406;-66
2023/11/02 08:31:29;;;;;;;0.28;0.28;;;10.50;91.40;;;;;;4987190;28;20444;-69
2023/11/02 08:33:55;;;;;;;0.40;0.20;;;10.60;90.30;;;;;;4990131;28;20034;-67
2023/11/02 08:36:23;;;;;;;0.40;0.30;;;10.50;90.90;;;;;;4987973;28;20045;-67
2023/11/02 08:38:48;;;;;;;0.30;0.28;;;10.60;90.80;;;;;;4985076;28;20034;-68
2023/11/02 08:41:25;;;;;;;0.55;0.30;;;10.60;90.40;;;;;;4982178;28;20135;-68
2023/11/02 08:43:51;;;;;;;0.60;0.30;;;10.60;90.40;;;;;;4986615;28;20027;-67
2023/11/02 08:46:25;;;;;;;0.68;0.30;;;10.60;90.30;;;;;;4987377;28;20109;-67
2023/11/02 08:48:54;;;;;;;0.22;0.22;;;10.60;90.00;;;;;;4986951;28;20479;-67
2023/11/02 08:51:21;;;;;;;0.30;0.20;;;10.70;89.40;;;;;;4982920;28;20039;-67
2023/11/02 08:53:47;;;;;;;0.30;0.30;;;10.80;89.30;;;;;;4983173;28;20045;-67
2023/11/02 08:56:13;;;;;;;0.50;0.30;;;10.80;89.10;;;;;;4985858;28;20050;-67
2023/11/02 08:58:43;;;;;;;1.00;0.30;;;10.80;89.00;;;;;;4956152;28;20054;-67
2023/11/02 09:01:10;;;;;;;1.20;0.20;;;10.80;88.70;;;;;;4983232;28;20073;-69
2023/11/02 09:03:37;;;;;;;0.52;0.20;;;10.80;89.40;;;;;;4990385;28;20035;-68
2023/11/02 09:06:05;;;;;;;0.65;0.38;;;10.80;89.30;;;;;;4990901;28;20065;-67
2023/11/02 09:08:30;;;;;;;0.40;0.15;;;10.80;89.20;;;;;;4982962;28;20031;-67
2023/11/02 09:10:56;;;;;;;0.60;0.40;;;10.90;88.80;;;;;;4984447;28;20041;-67
2023/11/02 09:13:21;;;;;;;0.45;0.22;;;10.90;88.60;;;;;;4986956;28;20575;-68
2023/11/02 09:15:47;;;;;;;1.38;0.28;;;10.90;88.90;;;;;;4992245;28;20046;-67
2023/11/02 09:18:12;;;;;;;0.38;0.38;;;10.90;89.00;;;;;;4988782;28;20038;-67
2023/11/02 09:20:37;;;;;;;3.42;0.50;;;10.90;88.60;;;;;;4989094;28;20038;-67
2023/11/02 09:23:03;;;;;;;1.13;0.32;;;10.90;88.70;;;;;;4992165;28;20101;-67
2023/11/02 09:25:28;;;;;;;0.22;0.20;;;10.90;88.10;;;;;;4988028;28;20030;-67
2023/11/02 09:27:54;;;;;;;1.98;0.52;;;11.00;88.00;;;;;;4978404;28;20062;-67
2023/11/02 09:30:20;;;;;;;0.30;0.30;;;11.00;88.00;;;;;;4992245;28;20088;-66
2023/11/02 09:32:46;;;;;;;0.63;0.30;;;11.00;87.60;;;;;;4994223;28;20491;-68
2023/11/02 09:35:11;;;;;;;0.98;0.35;;;11.10;87.50;;;;;;4991563;28;20045;-66
2023/11/02 09:37:36;;;;;;;1.75;0.20;;;11.20;87.10;;;;;;4990309;28;20089;-66
2023/11/02 09:40:06;;;;;;;0.20;0.20;;;11.10;87.40;;;;;;4989792;28;20559;-66
2023/11/02 09:42:32;;;;;;;0.20;0.20;;;11.20;85.80;;;;;;4987005;28;20555;-68
2023/11/02 09:44:58;;;;;;;0.52;0.32;;;11.30;86.40;;;;;;4992358;28;20109;-67
2023/11/02 09:47:24;;;;;;;1.02;0.20;;;11.20;86.80;;;;;;4994317;28;20030;-67
2023/11/02 09:49:49;;;;;;;0.20;0.17;;;11.40;85.70;;;;;;4994944;28;20140;-66
2023/11/02 09:52:15;;;;;;;0.90;0.35;;;11.50;85.00;;;;;;4993242;28;20042;-68
2023/11/02 09:54:41;;;;;;;0.65;0.35;;;11.60;85.20;;;;;;4989010;28;20037;-69
2023/11/02 09:57:06;;;;;;;0.30;0.20;;;11.60;84.90;;;;;;4986172;28;20041;-67
2023/11/02 09:59:33;;;;;;;0.20;0.10;;;11.60;84.70;;;;;;4967658;28;20057;-66
2023/11/02 10:02:00;;;;;;;0.32;0.20;;;11.60;85.20;;;;;;4990125;28;20038;-67
2023/11/02 10:04:26;;;;;;;2.20;0.32;;;11.60;85.30;;;;;;4991209;28;20556;-67
2023/11/02 10:06:51;;;;;;;0.95;0.35;;;11.60;85.20;;;;;;4988816;28;20030;-69
2023/11/02 10:09:17;;;;;;;0.40;0.15;;;11.80;84.30;;;;;;4986497;28;20034;-66
2023/11/02 10:11:42;;;;;;;0.45;0.10;;;11.80;84.80;;;;;;4989487;28;20077;-67
2023/11/02 10:14:09;;;;;;;0.55;0.10;;;11.80;84.70;;;;;;4991413;28;20482;-67
2023/11/02 10:16:34;;;;;;;0.43;0.13;;;11.80;84.20;;;;;;4990899;28;20046;-68
2023/11/02 10:19:00;;;;;;;1.52;0.40;;;11.70;85.10;;;;;;4992779;28;20030;-68
2023/11/02 10:21:25;;;;;;;0.52;0.20;;;11.70;85.70;;;;;;4992305;28;20049;-69
2023/11/02 10:23:55;;;;;;;0.60;0.20;;;11.70;85.40;;;;;;4997158;28;20061;-67
2023/11/02 10:26:21;;;;;;;0.35;0.30;;;11.70;84.70;;;;;;4982587;28;20046;-68
2023/11/02 10:28:47;;;;;;;0.55;0.30;;;11.80;84.90;;;;;;5004490;28;20038;-66
2023/11/02 10:31:18;;;;;;;0.20;0.10;;;11.90;83.70;;;;;;4991252;28;20030;-66
2023/11/02 10:33:48;;;;;;;0.20;0.20;;;11.90;84.10;;;;;;4993183;28;20085;-67
2023/11/02 10:36:13;;;;;;;0.70;0.30;;;11.80;84.70;;;;;;4988606;28;20034;-67
2023/11/02 10:38:39;;;;;;;0.85;0.30;;;11.90;83.80;;;;;;4989132;28;20122;-66
2023/11/02 10:41:07;;;;;;;0.10;0.10;;;12.00;84.00;;;;;;4992884;28;20030;-66
2023/11/02 10:43:37;;;;;;;0.45;0.10;;;12.00;83.10;;;;;;4981057;28;20026;-67
2023/11/02 10:46:04;;;;;;;0.20;0.20;;;12.10;83.50;;;;;;4985567;28;20030;-67
2023/11/02 10:48:34;;;;;;;0.65;0.17;;;12.20;82.40;;;;;;4988682;28;20038;-66
2023/11/02 10:51:02;;;;;;;0.30;0.30;;;12.30;83.00;;;;;;4991599;28;20157;-67
2023/11/02 10:54:02;;;;;;;0.20;0.20;;;12.30;83.00;;;;;;4987621;28;20876;-66
2023/11/02 10:56:38;;;;;;;0.20;0.10;;;12.40;82.70;;;;;;4986008;28;20026;-70
2023/11/02 10:59:03;;;;;;;0.22;0.22;;;12.50;82.20;;;;;;4966810;28;20388;-67
2023/11/02 11:01:31;;;;;;;0.80;0.47;;;12.40;82.20;;;;;;4988195;28;20101;-66
2023/11/02 11:03:57;;;;;;;0.43;0.20;;;12.60;82.10;;;;;;4992295;28;20096;-66
2023/11/02 11:06:25;;;;;;;0.55;0.20;;;12.60;81.80;;;;;;4989809;28;20072;-66
2023/11/02 11:08:51;;;;;;;0.28;0.20;;;12.70;81.20;;;;;;4988085;28;20476;-68
2023/11/02 11:11:18;;;;;;;0.15;0.13;;;12.80;80.70;;;;;;4987420;28;20034;-66
2023/11/02 11:13:45;;;;;;;0.90;0.22;;;12.70;81.40;;;;;;4990305;28;20049;-66
2023/11/02 11:16:13;;;;;;;0.30;0.30;;;12.70;81.40;;;;;;4984913;28;20034;-66
2023/11/02 11:18:39;;;;;;;0.13;0.13;;;12.80;81.90;;;;;;4987636;28;20454;-66
2023/11/02 11:21:06;;;;;;;0.35;0.10;;;12.80;80.70;;;;;;4991459;28;20093;-66
2023/11/02 11:23:37;;;;;;;0.40;0.20;;;12.80;81.20;;;;;;4987610;28;20382;-66
2023/11/02 11:26:04;;;;;;;0.20;0.10;;;12.80;80.10;;;;;;4984823;28;20030;-68
2023/11/02 11:28:34;;;;;;;1.35;0.30;;;12.90;80.40;;;;;;4991082;28;20097;-67
2023/11/02 11:31:01;;;;;;;0.15;0.13;;;12.90;80.10;;;;;;4988365;28;20103;-67
2023/11/02 11:33:47;;;;;;;0.65;0.30;;;12.90;80.80;;;;;;4991825;28;20046;-67
2023/11/02 11:36:26;;;;;;;0.70;0.52;;;13.00;80.10;;;;;;4983954;28;20471;-67
2023/11/02 11:38:53;;;;;;;0.40;0.20;;;13.00;80.70;;;;;;4990240;28;20026;-69
2023/11/02 11:41:42;;;;;;;1.15;0.20;;;13.00;81.20;;;;;;4982950;28;20352;-67
2023/11/02 11:44:22;;;;;;;1.27;0.28;;;13.10;79.60;;;;;;4988008;28;20046;-67
2023/11/02 11:46:53;;;;;;;0.65;0.15;;;13.10;79.30;;;;;;4987460;28;20023;-67
2023/11/02 11:49:34;;;;;;;0.15;0.10;;;13.20;80.50;;;;;;4994267;28;20108;-67
2023/11/02 11:52:05;;;;;;;0.22;0.10;;;13.40;79.10;;;;;;4984714;28;20470;-67
2023/11/02 11:54:30;;;;;;;0.13;0.13;;;13.60;78.70;;;;;;4990054;28;20073;-65
2023/11/02 11:56:56;;;;;;;0.17;0.10;;;13.60;77.80;;;;;;4989094;28;20061;-69
2023/11/02 11:59:56;;;;;;;0.15;0.10;;;13.80;77.60;;;;;;4964192;28;20046;-67
2023/11/02 12:02:32;;;;;;;0.20;0.20;;;13.90;77.50;;;;;;4982601;28;20493;-66
2023/11/02 12:04:58;;;;;;;0.35;0.10;;;13.80;77.00;;;;;;4991684;28;20525;-68
2023/11/02 12:07:24;;;;;;;0.40;0.17;;;13.70;77.90;;;;;;4987445;28;20034;-68
2023/11/02 12:09:50;;;;;;;0.15;0.10;;;13.60;78.70;;;;;;4985287;28;20034;-66
2023/11/02 12:12:17;;;;;;;0.20;0.10;;;13.50;78.70;;;;;;4988082;28;20473;-71
2023/11/02 12:14:42;;;;;;;0.50;0.25;;;13.50;79.40;;;;;;4988358;28;20048;-67
2023/11/02 12:17:08;;;;;;;0.32;0.15;;;13.50;79.50;;;;;;4982307;28;20031;-68
2023/11/02 12:19:43;;;;;;;0.00;0.00;;;13.50;78.10;;;;;;4984436;28;20061;-68
2023/11/02 12:22:10;;;;;;;0.10;0.10;;;13.60;78.30;;;;;;4990457;28;20105;-70
2023/11/02 12:24:39;;;;;;;0.75;0.20;;;13.60;78.20;;;;;;4989447;28;20026;-67
2023/11/02 12:27:09;;;;;;;0.30;0.10;;;13.60;77.70;;;;;;4975631;28;20054;-67
2023/11/02 12:29:34;;;;;;;0.28;0.10;;;13.50;77.90;;;;;;4981251;28;20050;-69
2023/11/02 12:32:00;;;;;;;1.10;0.28;;;13.50;78.90;;;;;;4987077;28;20106;-68
2023/11/02 12:34:25;;;;;;;0.13;0.13;;;13.50;78.60;;;;;;4988083;28;20050;-72
2023/11/02 12:36:52;;;;;;;4.22;0.63;;;13.40;78.40;;;;;;4982778;28;20504;-70
2023/11/02 12:39:26;;;;;;;0.30;0.20;;;13.50;78.80;;;;;;4986740;28;20426;-68
2023/11/02 12:41:52;;;;;;;0.40;0.20;;;13.50;79.50;;;;;;4982436;28;20034;-69
2023/11/02 12:44:22;;;;;;;0.32;0.22;;;13.50;78.20;;;;;;4981119;28;20096;-68
2023/11/02 12:46:51;;;;;;;1.55;0.30;;;13.50;79.20;;;;;;4985554;28;20044;-67
2023/11/02 12:49:27;;;;;;;0.30;0.20;;;13.60;78.90;;;;;;4986187;28;20022;-67
2023/11/02 12:51:57;;;;;;;0.20;0.10;;;13.70;77.30;;;;;;4978479;28;20054;-69
2023/11/02 12:54:26;;;;;;;1.50;0.20;;;13.80;77.50;;;;;;4980959;28;20038;-70
2023/11/02 12:56:55;;;;;;;0.10;0.10;;;13.80;78.10;;;;;;4982330;28;20038;-67
2023/11/02 12:59:25;;;;;;;0.20;0.20;;;13.80;77.40;;;;;;4962911;28;20058;-66
2023/11/02 13:01:59;;;;;;;0.10;0.10;;;13.70;78.00;;;;;;4983507;28;20038;-70
2023/11/02 13:04:54;;;;;;;0.30;0.25;;;13.70;78.20;;;;;;4987735;28;20057;-66
2023/11/02 13:07:24;;;;;;;1.17;0.30;;;13.70;78.10;;;;;;4985733;28;20053;-67
2023/11/02 13:10:07;;;;;;;2.28;0.40;;;13.70;78.60;;;;;;4985323;28;20018;-66